createdAt,value
2022-08-08T00:02:31.170Z,0.35
2022-08-08T00:07:46.788Z,0.30
2022-08-08T00:12:57.098Z,0.30
2022-08-08T00:18:09.673Z,0.30
2022-08-08T00:23:23.290Z,0.40
2022-08-08T00:28:40.268Z,0.20
2022-08-08T00:34:20.007Z,0.40
2022-08-08T00:41:12.383Z,0.30
2022-08-08T00:45:32.550Z,0.30
2022-08-08T00:51:07.900Z,0.40
2022-08-08T00:56:52.243Z,0.30
2022-08-08T01:03:59.822Z,0.40
2022-08-08T01:07:57.292Z,0.20
2022-08-08T01:13:52.940Z,0.50
2022-08-08T01:25:40.994Z,0.40
2022-08-08T01:32:05.754Z,0.38
2022-08-08T01:37:56.413Z,0.40
2022-08-08T01:43:08.239Z,0.40
2022-08-08T01:48:30.666Z,0.35
2022-08-08T01:55:16.480Z,0.40
2022-08-08T02:00:01.714Z,0.30
2022-08-08T02:11:08.257Z,0.40
2022-08-08T02:16:38.593Z,0.40
2022-08-08T02:22:06.812Z,0.60
2022-08-08T02:27:20.808Z,0.40
2022-08-08T02:32:50.115Z,0.28
2022-08-08T02:38:30.121Z,0.47
2022-08-08T02:44:39.101Z,0.43
2022-08-08T02:50:17.665Z,0.47
2022-08-08T02:56:10.785Z,0.50
2022-08-08T03:02:02.855Z,0.40
2022-08-08T03:07:58.432Z,0.60
2022-08-08T03:16:04.029Z,0.50
2022-08-08T03:19:34.543Z,0.40
2022-08-08T03:24:46.578Z,0.50
2022-08-08T03:30:02.176Z,0.50
2022-08-08T03:35:10.582Z,0.47
2022-08-08T03:40:29.707Z,0.30
2022-08-08T03:46:07.018Z,0.40
2022-08-08T03:51:09.945Z,0.50
2022-08-08T03:56:31.753Z,0.45
2022-08-08T04:02:22.927Z,0.40
2022-08-08T04:07:04.173Z,0.50
2022-08-08T04:12:16.688Z,0.40
2022-08-08T04:17:45.812Z,0.50
2022-08-08T04:22:51.366Z,0.50
2022-08-08T04:28:35.217Z,0.40
2022-08-08T04:33:27.047Z,0.40
2022-08-08T04:38:32.539Z,0.50
2022-08-08T04:43:45.395Z,0.43
2022-08-08T04:48:57.300Z,0.40
2022-08-08T04:54:40.110Z,0.38
2022-08-08T04:59:31.681Z,0.40
2022-08-08T05:04:48.267Z,0.40
2022-08-08T05:09:54.299Z,0.50
2022-08-08T05:15:05.212Z,0.50
2022-08-08T05:20:15.093Z,0.50
2022-08-08T05:25:21.691Z,0.40
2022-08-08T05:30:29.886Z,0.60
2022-08-08T05:35:39.708Z,0.65
2022-08-08T05:40:50.652Z,0.57
2022-08-08T05:46:04.294Z,0.52
2022-08-08T05:51:16.334Z,0.50
2022-08-08T05:56:27.934Z,0.40
2022-08-08T06:01:55.952Z,0.60
2022-08-08T06:07:04.474Z,0.50
2022-08-08T06:12:14.274Z,0.60
2022-08-08T06:17:50.144Z,0.50
2022-08-08T06:22:52.533Z,0.50
2022-08-08T06:28:07.873Z,0.70
2022-08-08T06:33:18.266Z,0.55
2022-08-08T06:38:49.155Z,0.50
2022-08-08T06:44:00.722Z,0.50
2022-08-08T06:49:14.329Z,0.40
2022-08-08T06:54:20.459Z,0.57
2022-08-08T06:59:25.759Z,0.63
2022-08-08T07:04:52.113Z,0.50
2022-08-08T07:10:08.189Z,0.70
2022-08-08T07:15:32.050Z,0.50
2022-08-08T07:20:51.787Z,0.50
2022-08-08T07:26:03.434Z,0.40
2022-08-08T07:31:10.159Z,0.50
2022-08-08T07:36:20.026Z,0.45
2022-08-08T07:41:28.342Z,0.57
2022-08-08T07:46:53.854Z,0.40
2022-08-08T07:52:03.479Z,0.60
2022-08-08T07:57:21.803Z,0.45
2022-08-08T08:02:41.635Z,0.43
2022-08-08T08:07:57.253Z,0.57
2022-08-08T08:13:42.749Z,0.50
2022-08-08T08:19:00.367Z,0.55
2022-08-08T08:24:13.902Z,0.50
2022-08-08T08:29:21.657Z,0.50
2022-08-08T08:34:32.796Z,0.50
2022-08-08T08:40:00.938Z,0.50
2022-08-08T08:45:22.718Z,0.60
2022-08-08T08:50:41.248Z,0.55
2022-08-08T08:55:53.903Z,0.63
2022-08-08T09:01:09.259Z,0.60
2022-08-08T09:06:26.331Z,0.57
2022-08-08T09:11:47.791Z,0.60
2022-08-08T09:17:11.553Z,0.70
2022-08-08T09:22:26.774Z,0.60
2022-08-08T09:27:55.787Z,0.50
2022-08-08T09:33:54.124Z,0.57
2022-08-08T09:38:51.960Z,0.50
2022-08-08T09:44:15.441Z,0.40
2022-08-08T09:49:42.556Z,0.40
2022-08-08T09:54:53.156Z,0.52
2022-08-08T10:05:31.112Z,0.60
2022-08-08T10:10:41.665Z,0.35
2022-08-08T10:16:01.119Z,0.45
2022-08-08T10:21:25.106Z,0.40
2022-08-08T10:26:57.071Z,0.60
2022-08-08T10:32:16.438Z,0.40
2022-08-08T10:37:30.343Z,0.30
2022-08-08T10:42:39.238Z,0.50
2022-08-08T10:47:56.752Z,0.60
2022-08-08T10:53:12.755Z,0.52
2022-08-08T10:58:18.067Z,0.40
2022-08-08T11:03:52.374Z,0.50
2022-08-08T11:09:09.564Z,0.40
2022-08-08T11:14:25.309Z,0.43
2022-08-08T11:19:38.626Z,0.47
2022-08-08T11:24:45.747Z,0.50
2022-08-08T11:30:20.585Z,0.52
2022-08-08T11:35:29.379Z,0.50
2022-08-08T11:40:48.482Z,0.40
2022-08-08T11:46:13.973Z,0.45
2022-08-08T11:51:30.239Z,0.63
2022-08-08T11:56:44.335Z,0.50
2022-08-08T12:02:30.999Z,0.50
2022-08-08T12:07:49.673Z,0.50
2022-08-08T12:13:05.993Z,0.40
2022-08-08T12:18:21.710Z,0.40
2022-08-08T12:23:42.955Z,0.50
2022-08-08T12:29:02.859Z,0.45
2022-08-08T12:34:09.192Z,0.50
2022-08-08T12:39:17.016Z,0.63
2022-08-08T12:44:32.567Z,0.50
2022-08-08T13:35:24.849Z,0.60
2022-08-08T13:41:00.517Z,0.60
2022-08-08T13:52:37.681Z,0.70
2022-08-08T13:58:07.625Z,0.60
2022-08-08T14:03:52.997Z,0.60
2022-08-08T14:09:24.755Z,0.40
2022-08-08T14:15:03.151Z,0.50
2022-08-08T14:20:38.937Z,0.50
2022-08-08T14:31:20.409Z,0.50
2022-08-08T14:36:53.621Z,0.47
2022-08-08T14:42:17.075Z,0.50
2022-08-08T14:47:37.880Z,0.40
2022-08-08T14:53:10.203Z,0.40
2022-08-08T14:58:30.497Z,0.55
2022-08-08T15:03:53.683Z,0.50
2022-08-08T15:09:24.906Z,0.40
2022-08-08T15:14:43.295Z,0.50
2022-08-08T15:20:02.163Z,0.40
2022-08-08T15:25:18.068Z,0.40
2022-08-08T15:30:37.078Z,0.47
2022-08-08T15:35:48.434Z,0.45
2022-08-08T15:41:02.552Z,0.50
2022-08-08T15:46:18.273Z,0.50
2022-08-08T15:51:36.627Z,0.50
2022-08-08T15:56:48.365Z,0.38
2022-08-08T16:02:00.657Z,0.40
2022-08-08T16:07:15.958Z,0.40
2022-08-08T16:13:05.465Z,0.43
2022-08-08T16:18:06.608Z,0.50
2022-08-08T16:23:32.941Z,0.57
2022-08-08T16:28:57.151Z,0.43
2022-08-08T16:34:09.548Z,0.57
2022-08-08T16:40:00.958Z,0.50
2022-08-08T16:45:11.404Z,0.50
2022-08-08T16:50:31.084Z,0.55
2022-08-08T16:56:00.421Z,0.50
2022-08-08T17:01:16.785Z,0.40
2022-08-08T17:06:36.258Z,0.50
2022-08-08T17:11:56.682Z,0.50
2022-08-08T17:17:41.372Z,0.50
2022-08-08T17:28:34.299Z,0.47
2022-08-08T17:34:37.499Z,0.40
2022-08-08T17:39:45.828Z,0.45
2022-08-08T17:44:51.146Z,0.43
2022-08-08T17:50:04.142Z,0.57
2022-08-08T17:56:05.190Z,0.50
2022-08-08T18:00:59.917Z,0.50
2022-08-08T18:06:19.910Z,0.40
2022-08-08T18:11:37.064Z,0.50
2022-08-08T18:16:57.380Z,0.52
2022-08-08T18:22:37.504Z,0.50
2022-08-08T18:27:47.991Z,0.52
2022-08-08T18:32:58.506Z,0.40
2022-08-08T18:38:29.621Z,0.60
2022-08-08T18:43:43.346Z,0.50
2022-08-08T18:48:54.283Z,0.60
2022-08-08T18:54:21.839Z,0.60
2022-08-08T18:59:40.873Z,0.45
2022-08-08T19:04:48.991Z,0.50
2022-08-08T19:10:14.152Z,0.60
2022-08-08T19:15:33.717Z,0.60
2022-08-08T19:20:55.902Z,0.60
2022-08-08T19:31:50.546Z,0.65
2022-08-08T19:43:04.348Z,0.50
2022-08-08T19:48:28.898Z,0.60
2022-08-08T19:53:53.204Z,0.50
2022-08-08T19:59:01.047Z,0.60
2022-08-08T20:04:26.792Z,0.63
2022-08-08T20:09:45.047Z,0.50
2022-08-08T20:16:00.509Z,0.50
2022-08-08T20:21:14.422Z,0.65
2022-08-08T20:26:27.548Z,0.45
2022-08-08T20:32:02.677Z,0.50
2022-08-08T20:37:13.310Z,0.60
2022-08-08T20:42:28.986Z,0.52
2022-08-08T20:47:46.025Z,0.50
2022-08-08T20:53:33.319Z,0.52
2022-08-08T20:58:47.588Z,0.50
2022-08-08T21:03:55.643Z,0.50
2022-08-08T21:09:05.788Z,0.50
2022-08-08T21:14:13.688Z,0.47
2022-08-08T21:19:19.680Z,0.60
2022-08-08T21:24:32.867Z,0.70
2022-08-08T21:30:03.809Z,0.70
2022-08-08T21:36:17.625Z,0.60
2022-08-08T21:40:32.967Z,0.50
2022-08-08T21:47:59.398Z,0.60
2022-08-08T21:51:10.226Z,0.70
2022-08-08T21:56:29.514Z,0.70
2022-08-08T22:01:51.937Z,0.60
2022-08-08T22:07:03.018Z,0.60
2022-08-08T22:12:09.812Z,0.63
2022-08-08T22:17:19.230Z,0.80
2022-08-08T22:22:28.646Z,0.90
2022-08-08T22:28:00.570Z,0.90
2022-08-08T22:33:02.309Z,0.70
2022-08-08T22:38:14.395Z,0.80
2022-08-08T22:43:23.242Z,0.70
2022-08-08T22:48:30.958Z,0.73
2022-08-08T22:54:31.288Z,0.60
2022-08-08T22:59:01.061Z,0.60
2022-08-08T23:04:12.658Z,0.60
2022-08-08T23:09:17.664Z,0.82
2022-08-08T23:14:25.605Z,0.60
2022-08-08T23:19:33.442Z,0.70
2022-08-08T23:24:41.457Z,0.70
2022-08-08T23:29:55.221Z,0.80
2022-08-08T23:35:08.064Z,0.60
2022-08-08T23:40:22.195Z,0.88
2022-08-08T23:49:05.627Z,1.10
2022-08-08T23:50:57.049Z,0.90
2022-08-08T23:56:02.566Z,0.80
